Time;durP1;ratioP1;P1;durP2;ratioP2;P2;SDS_P1;SDS_P2;PMS_P1;PMS_P2;Temp;Humidity;BMP_temperature;BMP_pressure;BME280_temperature;BME280_humidity;BME280_pressure;Samples;Min_cycle;Max_cycle;Signal;HPM_P1;HPM_P2
2021/04/29 00:02:19;;;;;;;10.20;7.22;;;;;;;0.19;75.76;99152.25;4949738;28;20035;-75
2021/04/29 00:04:45;;;;;;;9.82;6.68;;;;;;;0.09;76.15;99157.88;4949139;28;20031;-73
2021/04/29 00:07:10;;;;;;;14.68;7.68;;;;;;;-0.05;77.29;99164.84;4949199;28;21165;-73
2021/04/29 00:09:37;;;;;;;13.15;8.30;;;;;;;-0.02;77.20;99156.50;4952002;28;20621;-73
2021/04/29 00:12:04;;;;;;;19.77;7.90;;;;;;;-0.05;77.52;99156.91;4950182;28;20044;-72
2021/04/29 00:14:30;;;;;;;11.45;8.05;;;;;;;0.04;77.12;99154.97;4952555;28;20374;-73
2021/04/29 00:16:55;;;;;;;15.15;8.45;;;;;;;0.09;76.90;99151.72;4953851;29;20045;-74
2021/04/29 00:19:21;;;;;;;13.43;8.07;;;;;;;0.31;76.17;99149.91;4606940;28;9999791;-73
2021/04/29 00:21:47;;;;;;;11.82;8.20;;;;;;;0.42;74.67;99146.75;4944906;28;20045;-73
2021/04/29 00:24:12;;;;;;;16.30;7.90;;;;;;;0.61;74.94;99149.75;4950004;28;20485;-74
2021/04/29 00:26:38;;;;;;;12.23;8.18;;;;;;;0.62;75.24;99150.56;4945631;28;20032;-72
2021/04/29 00:29:03;;;;;;;15.98;7.97;;;;;;;0.60;74.74;99149.94;4953283;28;20066;-73
2021/04/29 00:31:30;;;;;;;16.98;7.90;;;;;;;0.78;74.17;99154.75;4950307;28;20031;-73
2021/04/29 00:33:57;;;;;;;19.15;7.90;;;;;;;0.85;73.92;99150.31;4950133;28;20023;-72
2021/04/29 00:36:22;;;;;;;12.55;7.85;;;;;;;0.99;73.49;99153.91;4945253;28;20035;-72
2021/04/29 00:38:48;;;;;;;17.70;8.73;;;;;;;1.11;73.47;99144.38;4947906;28;20371;-74
2021/04/29 00:41:14;;;;;;;15.60;8.00;;;;;;;1.08;73.36;99144.78;4947159;28;20375;-74
2021/04/29 00:43:40;;;;;;;15.77;8.30;;;;;;;1.12;73.54;99139.88;4948632;28;20066;-72
2021/04/29 00:46:08;;;;;;;16.88;8.40;;;;;;;1.12;73.64;99142.53;4951731;28;20061;-74
2021/04/29 00:48:34;;;;;;;17.58;7.80;;;;;;;1.01;74.21;99143.91;4949922;28;20031;-72
2021/04/29 00:50:59;;;;;;;15.77;7.90;;;;;;;1.06;74.10;99152.09;4945774;28;20043;-73
2021/04/29 00:53:40;;;;;;;16.02;8.10;;;;;;;1.05;74.37;99139.03;4943243;28;20496;-73
2021/04/29 00:56:06;;;;;;;16.50;8.40;;;;;;;0.96;75.29;99139.19;4954111;29;20039;-73
2021/04/29 00:58:32;;;;;;;12.77;8.55;;;;;;;0.92;75.73;99139.78;4949641;28;20063;-72
2021/04/29 01:00:58;;;;;;;17.08;8.43;;;;;;;0.91;76.53;99138.16;4951765;28;20049;-72
2021/04/29 01:03:30;;;;;;;17.42;8.75;;;;;;;0.86;76.42;99136.84;4951691;28;20122;-75
2021/04/29 01:06:01;;;;;;;16.00;8.55;;;;;;;0.83;76.50;99141.75;4930058;28;20039;-73
2021/04/29 01:08:42;;;;;;;15.45;9.07;;;;;;;0.83;77.56;99134.59;4948753;28;20028;-73
2021/04/29 01:11:17;;;;;;;16.95;9.63;;;;;;;0.94;77.82;99135.09;4941269;28;21266;-73
2021/04/29 01:13:48;;;;;;;15.10;9.40;;;;;;;1.07;77.44;99129.88;4950026;28;20540;-73
2021/04/29 01:16:17;;;;;;;17.42;9.35;;;;;;;1.05;77.91;99133.72;4949074;28;20087;-73
2021/04/29 01:18:45;;;;;;;20.52;9.85;;;;;;;1.04;77.85;99137.38;4945925;28;20587;-73
2021/04/29 01:21:14;;;;;;;16.38;9.85;;;;;;;0.97;78.18;99130.22;4950275;28;20466;-73
2021/04/29 01:23:40;;;;;;;21.38;9.32;;;;;;;0.87;78.31;99135.84;4950471;28;20043;-74
2021/04/29 01:26:43;;;;;;;16.90;10.02;;;;;;;0.84;78.48;99136.22;4944677;28;20050;-73
2021/04/29 01:29:11;;;;;;;27.73;10.45;;;;;;;0.84;78.94;99135.44;4915034;29;20130;-72
2021/04/29 01:31:41;;;;;;;19.88;9.98;;;;;;;0.65;78.98;99143.06;4946575;28;20041;-73
2021/04/29 01:34:09;;;;;;;15.55;9.98;;;;;;;0.43;79.60;99131.66;4933915;29;20374;-73
2021/04/29 01:36:36;;;;;;;17.13;10.00;;;;;;;0.41;81.34;99131.88;4939609;28;20528;-72
2021/04/29 01:39:10;;;;;;;25.38;12.15;;;;;;;0.58;81.62;99126.28;4945961;28;20032;-74
2021/04/29 01:41:40;;;;;;;;;;;;;;;0.73;81.38;99127.00;4951967;28;20043;-72
2021/04/29 01:44:08;;;;;;;20.58;10.52;;;;;;;0.99;81.01;99127.38;4944733;28;19919;-72
2021/04/29 01:46:35;;;;;;;28.02;10.98;;;;;;;1.06;80.71;99130.88;4948096;28;20499;-72
2021/04/29 01:49:04;;;;;;;24.27;10.48;;;;;;;1.10;80.42;99132.13;4951011;28;20118;-72
2021/04/29 01:51:31;;;;;;;17.45;9.65;;;;;;;1.02;81.04;99122.50;4952439;28;20055;-72
2021/04/29 01:54:01;;;;;;;18.02;9.75;;;;;;;1.01;80.95;99134.13;4950886;28;20445;-73
2021/04/29 01:56:27;;;;;;;16.05;9.20;;;;;;;0.93;80.69;99142.22;4931527;28;20030;-72
2021/04/29 01:58:53;;;;;;;26.33;10.13;;;;;;;0.82;81.94;99134.81;4946598;28;20039;-72
2021/04/29 02:01:18;;;;;;;16.88;9.50;;;;;;;0.80;81.74;99136.84;4947474;28;20058;-73
2021/04/29 02:03:45;;;;;;;25.70;9.77;;;;;;;0.82;82.22;99140.09;4935907;28;20031;-72
2021/04/29 02:06:11;;;;;;;19.60;9.70;;;;;;;0.93;83.09;99138.78;4949438;28;20035;-73
2021/04/29 02:08:36;;;;;;;25.02;9.73;;;;;;;1.06;83.02;99136.19;4949672;28;20122;-72
2021/04/29 02:11:08;;;;;;;14.55;7.85;;;;;;;1.02;82.15;99130.44;4947830;28;20516;-72
2021/04/29 02:13:35;;;;;;;18.42;8.18;;;;;;;1.17;82.41;99125.03;4952876;28;20035;-72
2021/04/29 02:16:33;;;;;;;17.25;8.18;;;;;;;1.17;82.03;99127.69;4947094;28;20045;-72
2021/04/29 02:19:01;;;;;;;18.20;7.72;;;;;;;1.43;82.27;99130.63;4924832;29;20122;-72
2021/04/29 02:21:28;;;;;;;18.00;7.95;;;;;;;1.44;81.46;99125.16;4940934;28;20043;-73
2021/04/29 02:23:54;;;;;;;21.40;7.63;;;;;;;1.53;81.41;99131.09;4951305;28;20035;-72
2021/04/29 02:26:20;;;;;;;17.10;7.20;;;;;;;1.47;81.49;99131.88;4951167;28;20102;-72
2021/04/29 02:28:47;;;;;;;10.05;6.65;;;;;;;1.47;81.64;99129.22;4944952;28;20489;-73
2021/04/29 02:31:14;;;;;;;13.82;6.80;;;;;;;1.48;81.52;99133.53;4952659;29;20044;-72
2021/04/29 02:33:40;;;;;;;15.10;7.25;;;;;;;1.42;82.13;99126.34;4947337;28;20035;-72
2021/04/29 02:36:08;;;;;;;28.75;7.18;;;;;;;1.52;81.87;99136.59;4951228;28;20119;-72
2021/04/29 02:38:36;;;;;;;17.80;7.53;;;;;;;1.53;81.92;99133.75;4944158;28;20067;-72
2021/04/29 02:41:04;;;;;;;11.88;7.10;;;;;;;1.73;81.18;99128.50;4931565;29;20039;-73
2021/04/29 02:43:30;;;;;;;13.95;6.88;;;;;;;1.67;81.05;99124.00;4945680;28;20059;-73
2021/04/29 02:45:56;;;;;;;15.85;7.05;;;;;;;1.55;81.76;99130.91;4945894;28;20070;-72
2021/04/29 02:48:22;;;;;;;23.92;7.45;;;;;;;1.51;82.10;99121.69;4943377;28;20035;-73
2021/04/29 02:50:47;;;;;;;21.20;6.97;;;;;;;1.37;82.10;99128.78;4943235;28;20055;-72
2021/04/29 02:53:18;;;;;;;14.75;6.63;;;;;;;1.34;82.34;99123.88;4950728;28;20043;-72
2021/04/29 02:55:45;;;;;;;18.02;6.97;;;;;;;1.30;82.90;99126.09;4931723;28;20039;-72
2021/04/29 02:58:13;;;;;;;13.65;6.85;;;;;;;1.26;83.33;99120.38;4948891;28;20374;-72
2021/04/29 03:00:40;;;;;;;15.25;7.30;;;;;;;1.19;83.29;99121.38;4945186;28;20506;-72
2021/04/29 03:03:08;;;;;;;16.05;8.10;;;;;;;1.22;83.66;99119.13;4945684;28;20055;-73
2021/04/29 03:05:34;;;;;;;11.85;7.20;;;;;;;1.17;83.80;99116.25;4944611;28;20027;-72
2021/04/29 03:08:00;;;;;;;16.23;7.80;;;;;;;1.11;83.40;99114.38;4947696;28;20032;-72
2021/04/29 03:10:26;;;;;;;15.10;7.78;;;;;;;1.16;83.86;99112.78;4948338;28;20035;-73
2021/04/29 03:12:51;;;;;;;14.32;8.15;;;;;;;1.23;83.82;99119.97;4946912;28;20039;-73
2021/04/29 03:15:17;;;;;;;15.20;6.57;;;;;;;1.27;83.53;99110.59;4944582;28;20046;-72
2021/04/29 03:17:43;;;;;;;12.88;7.25;;;;;;;1.33;83.33;99112.44;4947421;28;20031;-72
2021/04/29 03:20:09;;;;;;;16.42;7.80;;;;;;;1.41;82.71;99112.28;4937265;28;20044;-72
2021/04/29 03:22:35;;;;;;;11.55;7.43;;;;;;;1.50;82.75;99115.56;4943442;29;20043;-72
2021/04/29 03:25:01;;;;;;;17.17;7.60;;;;;;;1.65;82.29;99109.28;4952989;28;21164;-73
2021/04/29 03:27:27;;;;;;;18.00;7.28;;;;;;;1.70;81.71;99104.19;4944539;28;20028;-73
2021/04/29 03:29:53;;;;;;;11.80;6.38;;;;;;;1.75;82.15;99102.59;4943675;28;20169;-73
2021/04/29 03:32:19;;;;;;;18.77;7.20;;;;;;;1.82;81.64;99105.25;4949524;28;20126;-71
2021/04/29 03:34:45;;;;;;;12.45;6.63;;;;;;;1.76;81.90;99111.34;4937881;28;20039;-72
2021/04/29 03:37:11;;;;;;;11.27;6.68;;;;;;;1.78;81.35;99108.50;4946322;28;20032;-71
2021/04/29 03:39:36;;;;;;;9.48;5.85;;;;;;;1.72;81.61;99104.81;4943887;28;20515;-71
2021/04/29 03:42:06;;;;;;;10.18;6.20;;;;;;;1.71;81.55;99106.66;4946844;28;20051;-72
2021/04/29 03:44:36;;;;;;;15.63;6.13;;;;;;;1.63;82.14;99112.16;4942356;28;20051;-71
2021/04/29 03:47:03;;;;;;;11.52;6.13;;;;;;;1.63;81.93;99108.66;4948525;28;20031;-70
2021/04/29 03:49:29;;;;;;;16.08;7.82;;;;;;;1.53;82.27;99109.06;4952259;28;20031;-71
2021/04/29 03:51:54;;;;;;;12.45;6.32;;;;;;;1.53;82.73;99109.84;4951810;28;20511;-71
2021/04/29 03:54:20;;;;;;;9.00;6.30;;;;;;;1.68;82.16;99104.41;4948961;28;20062;-71
2021/04/29 03:56:46;;;;;;;13.13;6.57;;;;;;;1.63;82.10;99106.00;4939286;28;20040;-71
2021/04/29 03:59:12;;;;;;;15.75;6.60;;;;;;;1.52;82.41;99105.56;4944945;28;20090;-72
2021/04/29 04:01:38;;;;;;;14.68;6.10;;;;;;;1.54;82.16;99100.06;4952080;28;20043;-71
2021/04/29 04:04:04;;;;;;;10.82;6.43;;;;;;;1.42;82.66;99102.47;4933529;29;20370;-70
2021/04/29 04:06:30;;;;;;;14.38;6.28;;;;;;;1.59;82.52;99103.75;4941150;28;20078;-71
2021/04/29 04:08:55;;;;;;;10.82;5.88;;;;;;;1.53;82.47;99101.09;4952238;28;20046;-71
2021/04/29 04:11:22;;;;;;;12.38;6.35;;;;;;;1.54;82.34;99105.38;4949693;28;20030;-71
2021/04/29 04:13:49;;;;;;;16.13;6.70;;;;;;;1.44;82.89;99105.75;4943696;28;20043;-71
2021/04/29 04:16:16;;;;;;;16.83;6.43;;;;;;;1.45;82.73;99110.88;4951627;28;20449;-71
2021/04/29 04:18:44;;;;;;;9.63;5.72;;;;;;;1.40;82.92;99108.00;4952759;28;20045;-71
2021/04/29 04:21:10;;;;;;;10.45;5.25;;;;;;;1.35;82.75;99113.06;4952709;28;20039;-70
2021/04/29 04:23:36;;;;;;;12.45;5.75;;;;;;;1.28;83.17;99120.19;4951297;28;20444;-73
2021/04/29 04:26:02;;;;;;;11.85;5.75;;;;;;;1.22;83.56;99113.81;4952634;28;20050;-73
2021/04/29 04:28:29;;;;;;;13.68;6.05;;;;;;;1.27;83.49;99116.69;4946986;28;20067;-72
2021/04/29 04:30:55;;;;;;;10.15;5.95;;;;;;;1.23;83.91;99123.41;4950336;28;20134;-72
2021/04/29 04:33:20;;;;;;;8.70;5.68;;;;;;;1.14;84.04;99129.91;4946569;28;20040;-73
2021/04/29 04:35:46;;;;;;;10.57;6.05;;;;;;;1.18;84.04;99128.50;4953148;28;20033;-74
2021/04/29 04:38:12;;;;;;;10.13;6.10;;;;;;;1.23;84.11;99128.72;4953430;28;20062;-72
2021/04/29 04:40:38;;;;;;;7.65;5.28;;;;;;;1.14;83.84;99127.25;4943005;28;20413;-72
2021/04/29 04:43:03;;;;;;;12.05;6.18;;;;;;;1.14;84.38;99127.25;4947351;28;20038;-72
2021/04/29 04:45:29;;;;;;;10.65;5.72;;;;;;;1.12;84.44;99135.41;4944003;28;20047;-72
2021/04/29 04:47:54;;;;;;;9.40;5.63;;;;;;;1.09;84.54;99135.81;4950702;28;20031;-73
2021/04/29 04:50:20;;;;;;;11.98;5.20;;;;;;;1.09;84.55;99137.63;4943040;28;20031;-72
2021/04/29 04:52:46;;;;;;;12.85;6.10;;;;;;;1.08;84.99;99136.81;4943714;28;20521;-73
2021/04/29 04:55:12;;;;;;;8.05;5.20;;;;;;;1.06;84.93;99136.19;4948073;28;20039;-73
2021/04/29 04:57:37;;;;;;;8.38;5.97;;;;;;;1.06;85.44;99130.06;4947869;28;20027;-71
2021/04/29 05:00:04;;;;;;;10.13;5.82;;;;;;;1.07;85.33;99140.47;4947771;28;20174;-72
2021/04/29 05:02:30;;;;;;;12.80;5.43;;;;;;;1.07;85.16;99135.19;4941794;28;20504;-71
2021/04/29 05:04:55;;;;;;;9.75;4.90;;;;;;;1.08;84.85;99144.78;4949120;28;20042;-71
2021/04/29 05:07:21;;;;;;;7.50;4.80;;;;;;;1.02;85.02;99138.41;4948499;28;20528;-71
2021/04/29 05:09:47;;;;;;;9.02;5.43;;;;;;;1.00;85.54;99143.09;4950274;28;20051;-72
2021/04/29 05:12:13;;;;;;;8.88;5.00;;;;;;;1.16;84.87;99141.13;4952531;28;20139;-72
2021/04/29 05:14:38;;;;;;;9.60;4.97;;;;;;;1.15;85.11;99142.97;4953198;28;20031;-72
2021/04/29 05:17:04;;;;;;;44.78;8.90;;;;;;;1.19;85.90;99146.03;4942546;28;21004;-73
2021/04/29 05:19:30;;;;;;;12.90;4.85;;;;;;;1.23;84.85;99146.47;4931548;29;20039;-73
2021/04/29 05:21:56;;;;;;;7.53;5.57;;;;;;;1.31;84.88;99157.75;4930041;29;20028;-73
2021/04/29 05:24:22;;;;;;;11.55;5.88;;;;;;;1.31;84.57;99159.59;4947780;28;20508;-73
2021/04/29 05:26:47;;;;;;;11.98;6.13;;;;;;;1.40;84.46;99158.41;4953336;28;20059;-72
2021/04/29 05:29:13;;;;;;;10.23;5.22;;;;;;;1.41;84.33;99159.22;4948358;28;20151;-73
2021/04/29 05:31:39;;;;;;;8.05;4.75;;;;;;;1.54;84.14;99164.56;4946980;28;20518;-74
2021/04/29 05:34:05;;;;;;;9.68;4.78;;;;;;;1.66;83.67;99170.16;4953647;28;20032;-68
2021/04/29 05:36:31;;;;;;;10.98;5.35;;;;;;;1.79;83.13;99172.06;4950085;29;20048;-74
2021/04/29 05:38:57;;;;;;;8.05;5.00;;;;;;;1.84;82.95;99166.13;4934107;29;20023;-74
2021/04/29 05:41:23;;;;;;;7.50;4.40;;;;;;;1.95;82.16;99162.09;4948199;28;20035;-73
2021/04/29 05:43:49;;;;;;;9.35;5.90;;;;;;;2.00;82.42;99162.31;4945590;28;20035;-72
2021/04/29 05:46:14;;;;;;;7.65;4.65;;;;;;;1.97;81.97;99158.19;4940873;28;20039;-72
2021/04/29 05:48:40;;;;;;;7.75;4.30;;;;;;;2.00;81.88;99159.66;4940670;28;20392;-75
2021/04/29 05:51:06;;;;;;;6.70;3.72;;;;;;;2.02;81.96;99155.75;4939019;28;20468;-75
2021/04/29 05:53:31;;;;;;;8.93;5.18;;;;;;;2.08;81.84;99158.63;4944991;28;20031;-74
2021/04/29 05:55:57;;;;;;;7.47;4.63;;;;;;;2.24;81.42;99165.41;4945183;28;20043;-75
2021/04/29 05:58:23;;;;;;;13.65;4.88;;;;;;;2.35;80.94;99164.81;4944398;28;20031;-74
2021/04/29 06:00:49;;;;;;;5.53;3.58;;;;;;;2.45;80.52;99161.75;4929763;29;20489;-74
2021/04/29 06:03:15;;;;;;;6.60;4.28;;;;;;;2.43;80.73;99163.78;4942560;28;20453;-75
2021/04/29 06:05:41;;;;;;;7.45;3.97;;;;;;;2.54;80.50;99170.34;4936642;28;20336;-76
2021/04/29 06:08:06;;;;;;;6.40;3.90;;;;;;;2.51;80.20;99168.09;4938665;28;20490;-73
2021/04/29 06:10:33;;;;;;;6.18;3.78;;;;;;;2.54;79.91;99165.03;4932971;28;20039;-76
2021/04/29 06:12:59;;;;;;;17.73;4.30;;;;;;;2.68;79.62;99168.53;4937136;28;20524;-76
2021/04/29 06:15:25;;;;;;;6.80;3.47;;;;;;;2.75;78.96;99159.50;4936454;28;20036;-75
2021/04/29 06:17:51;;;;;;;5.20;3.22;;;;;;;2.77;79.19;99160.13;4934320;28;20458;-74
2021/04/29 06:20:17;;;;;;;5.40;3.55;;;;;;;2.84;79.48;99165.44;4937056;28;20481;-74
2021/04/29 06:22:44;;;;;;;7.93;3.47;;;;;;;2.94;79.45;99162.34;4933983;28;20035;-74
2021/04/29 06:25:10;;;;;;;6.90;3.40;;;;;;;2.99;79.10;99170.53;4934371;28;20503;-74
2021/04/29 06:27:36;;;;;;;5.65;3.10;;;;;;;3.08;78.11;99165.81;4936574;28;20040;-78
2021/04/29 06:30:03;;;;;;;8.43;3.70;;;;;;;3.14;77.97;99167.66;4936564;28;20028;-76
2021/04/29 06:32:29;;;;;;;9.07;3.40;;;;;;;3.14;77.53;99170.31;4930058;28;20035;-76
2021/04/29 06:34:55;;;;;;;11.20;3.85;;;;;;;3.15;77.59;99171.09;4943718;28;20050;-76
2021/04/29 06:37:20;;;;;;;7.20;3.13;;;;;;;3.25;77.68;99171.50;4941827;28;20107;-72
2021/04/29 06:39:47;;;;;;;14.18;3.63;;;;;;;3.33;77.11;99162.47;4936892;28;20027;-71
2021/04/29 06:42:13;;;;;;;9.90;3.58;;;;;;;3.37;76.88;99169.81;4942663;28;20043;-72
2021/04/29 06:44:40;;;;;;;8.05;2.97;;;;;;;3.44;76.63;99171.66;4941827;28;20147;-72
2021/04/29 06:47:05;;;;;;;9.25;3.08;;;;;;;3.47;76.87;99174.72;4936978;28;20454;-72
2021/04/29 06:49:31;;;;;;;13.48;3.17;;;;;;;3.47;76.46;99182.72;4938438;28;20520;-72
2021/04/29 06:51:56;;;;;;;11.82;3.05;;;;;;;3.65;75.67;99175.88;4940128;28;20051;-71
2021/04/29 06:54:22;;;;;;;5.28;2.80;;;;;;;3.54;76.37;99180.03;4945086;29;20558;-71
2021/04/29 06:56:47;;;;;;;10.85;3.80;;;;;;;3.74;75.20;99187.13;4947102;28;20035;-70
2021/04/29 06:59:13;;;;;;;12.60;3.70;;;;;;;3.75;75.69;99188.78;4955401;28;20030;-71
2021/04/29 07:01:39;;;;;;;5.00;2.70;;;;;;;3.87;75.10;99194.22;4954217;28;21031;-72
2021/04/29 07:04:05;;;;;;;9.77;2.75;;;;;;;3.77;75.66;99187.50;4955330;28;20385;-73
2021/04/29 07:06:31;;;;;;;9.25;2.88;;;;;;;3.95;74.76;99188.66;4950449;28;20499;-72
2021/04/29 07:08:59;;;;;;;5.93;2.85;;;;;;;3.88;74.60;99193.19;4940749;29;20131;-72
2021/04/29 07:11:25;;;;;;;9.52;3.10;;;;;;;3.77;75.46;99192.84;4944865;28;20122;-72
2021/04/29 07:13:51;;;;;;;9.38;2.80;;;;;;;3.86;74.78;99192.59;4939594;28;20103;-72
2021/04/29 07:16:16;;;;;;;14.27;3.00;;;;;;;3.94;74.65;99187.03;4942819;28;20035;-71
2021/04/29 07:18:42;;;;;;;6.00;2.45;;;;;;;3.98;74.50;99193.56;4934723;28;20024;-72
2021/04/29 07:21:07;;;;;;;5.22;2.22;;;;;;;4.05;73.56;99190.88;4939161;28;20102;-72
2021/04/29 07:23:34;;;;;;;8.38;2.53;;;;;;;3.95;75.04;99194.81;4946134;28;20035;-71
2021/04/29 07:26:00;;;;;;;5.03;2.30;;;;;;;4.11;73.97;99192.69;4945804;28;20059;-72
2021/04/29 07:28:27;;;;;;;5.43;2.05;;;;;;;4.16;73.59;99195.53;4945970;28;20067;-72
2021/04/29 07:30:54;;;;;;;7.07;2.13;;;;;;;4.17;73.40;99191.00;4948004;28;20027;-71
2021/04/29 07:33:19;;;;;;;20.52;2.33;;;;;;;4.09;73.37;99200.88;4935157;28;20045;-72
2021/04/29 07:35:45;;;;;;;8.50;2.35;;;;;;;4.06;73.17;99197.84;4953629;28;20394;-70
2021/04/29 07:38:11;;;;;;;4.68;2.35;;;;;;;4.11;73.43;99195.34;4953417;28;20490;-70
2021/04/29 07:40:38;;;;;;;5.00;2.42;;;;;;;4.06;73.86;99181.84;4950908;28;20043;-70
2021/04/29 07:43:04;;;;;;;3.58;1.95;;;;;;;3.90;74.53;99197.31;4955250;29;20110;-70
2021/04/29 07:45:30;;;;;;;10.70;2.20;;;;;;;3.80;74.71;99195.09;4950430;28;20122;-69
2021/04/29 07:47:55;;;;;;;6.80;2.38;;;;;;;3.85;74.78;99199.78;4953957;28;20027;-70
2021/04/29 07:50:21;;;;;;;7.22;2.42;;;;;;;3.82;74.54;99216.19;4949624;28;20476;-69
2021/04/29 07:52:47;;;;;;;14.15;2.67;;;;;;;3.78;74.45;99205.13;4953018;28;20034;-70
2021/04/29 07:55:15;;;;;;;8.70;2.10;;;;;;;3.78;75.16;99207.00;4949181;28;20094;-70
2021/04/29 07:57:41;;;;;;;7.88;2.15;;;;;;;3.90;73.68;99212.47;4955200;29;20121;-69
2021/04/29 08:00:09;;;;;;;6.90;2.10;;;;;;;3.94;74.36;99211.84;4946256;28;20032;-69
2021/04/29 08:02:35;;;;;;;7.60;2.20;;;;;;;3.91;74.83;99206.09;4947899;28;20043;-69
2021/04/29 08:05:00;;;;;;;5.18;2.00;;;;;;;4.09;74.51;99219.53;4949278;28;20039;-69
2021/04/29 08:07:26;;;;;;;9.52;2.30;;;;;;;4.09;74.65;99213.41;4925758;29;20106;-69
2021/04/29 08:09:52;;;;;;;6.38;2.50;;;;;;;4.09;74.55;99218.75;4948686;28;20039;-69
2021/04/29 08:12:19;;;;;;;5.07;1.85;;;;;;;4.05;74.71;99220.19;4942921;28;20699;-69
2021/04/29 08:14:45;;;;;;;9.15;2.10;;;;;;;4.14;75.04;99218.09;4949651;28;20031;-69
2021/04/29 08:17:10;;;;;;;6.43;2.17;;;;;;;4.32;75.39;99225.38;4949525;28;20114;-69
2021/04/29 08:19:36;;;;;;;4.22;2.10;;;;;;;4.29;75.62;99228.47;4940347;28;20039;-70
2021/04/29 08:22:03;;;;;;;6.75;2.08;;;;;;;4.28;74.54;99226.84;4933964;28;20039;-70
2021/04/29 08:24:29;;;;;;;5.30;2.00;;;;;;;4.30;73.75;99222.91;4950876;28;20142;-69
2021/04/29 08:26:55;;;;;;;5.07;1.83;;;;;;;4.44;73.32;99225.53;4948143;28;20114;-70
2021/04/29 08:29:20;;;;;;;5.13;2.25;;;;;;;4.42;73.03;99223.06;4939358;28;20067;-69
2021/04/29 08:31:46;;;;;;;2.28;1.75;;;;;;;4.61;72.44;99228.47;4934346;28;20031;-68
2021/04/29 08:34:11;;;;;;;6.63;2.30;;;;;;;4.99;72.88;99222.22;4936354;28;20027;-70
2021/04/29 08:36:37;;;;;;;7.43;2.38;;;;;;;5.33;70.35;99220.09;4936302;28;20402;-69
2021/04/29 08:39:04;;;;;;;10.13;2.05;;;;;;;5.35;69.42;99215.34;4946044;28;20615;-70
2021/04/29 08:41:32;;;;;;;5.10;2.17;;;;;;;5.45;67.98;99214.81;4933849;28;20045;-69
2021/04/29 08:43:58;;;;;;;6.60;1.80;;;;;;;5.30;68.34;99209.84;4949284;28;20055;-70
2021/04/29 08:46:24;;;;;;;5.75;2.25;;;;;;;5.21;68.07;99214.66;4940870;28;20035;-70
2021/04/29 08:48:54;;;;;;;7.75;2.63;;;;;;;5.38;67.00;99219.41;4945490;28;20130;-69
2021/04/29 08:51:20;;;;;;;3.50;1.80;;;;;;;5.37;66.53;99220.44;4945313;28;20058;-69
2021/04/29 08:53:48;;;;;;;6.60;2.30;;;;;;;5.42;65.78;99213.41;4948191;28;20046;-69
2021/04/29 08:56:22;;;;;;;4.30;2.00;;;;;;;5.28;66.05;99220.75;4930038;29;20039;-70
2021/04/29 08:58:48;;;;;;;;;;;;;;;5.33;66.78;99220.09;4943268;28;20027;-69
2021/04/29 09:01:13;;;;;;;10.98;2.60;;;;;;;5.37;66.46;99221.28;4951667;28;19919;-72
2021/04/29 09:03:40;;;;;;;5.40;2.10;;;;;;;5.50;65.87;99225.66;4945458;28;20078;-70
2021/04/29 09:06:07;;;;;;;9.52;2.30;;;;;;;5.32;65.63;99222.97;4946495;28;20122;-69
2021/04/29 09:08:36;;;;;;;11.73;2.30;;;;;;;5.73;65.66;99229.50;4945488;28;20035;-70
2021/04/29 09:11:14;;;;;;;6.10;2.15;;;;;;;5.82;64.00;99222.03;4933148;28;20035;-69
2021/04/29 09:13:41;;;;;;;7.97;2.20;;;;;;;5.98;63.72;99231.28;4944391;29;20036;-69
2021/04/29 09:16:10;;;;;;;5.68;2.22;;;;;;;5.74;62.59;99231.16;4937317;28;20037;-69
2021/04/29 09:18:40;;;;;;;7.15;2.25;;;;;;;5.51;63.42;99227.28;4950320;28;20086;-69
2021/04/29 09:21:15;;;;;;;12.05;2.30;;;;;;;5.37;64.40;99223.13;4945277;28;20405;-69
2021/04/29 09:23:46;;;;;;;18.75;2.53;;;;;;;5.45;63.95;99222.03;4947651;28;20086;-69
2021/04/29 09:26:17;;;;;;;8.07;2.10;;;;;;;5.48;64.47;99229.59;4938528;28;20493;-69
2021/04/29 09:28:52;;;;;;;6.22;2.28;;;;;;;5.72;63.66;99233.22;4939090;28;20036;-69
2021/04/29 09:31:23;;;;;;;9.88;2.28;;;;;;;5.91;61.53;99228.69;4936054;28;20474;-69
2021/04/29 09:33:54;;;;;;;8.57;2.08;;;;;;;5.96;60.38;99228.00;4930656;28;20608;-70
2021/04/29 09:36:27;;;;;;;6.47;2.10;;;;;;;6.08;60.85;99238.81;4933903;28;20032;-70
2021/04/29 09:38:54;;;;;;;4.22;1.92;;;;;;;6.27;58.89;99242.28;4931534;28;20039;-70
2021/04/29 09:41:25;;;;;;;5.80;1.88;;;;;;;6.44;58.71;99231.72;4934021;28;20126;-71
2021/04/29 09:43:55;;;;;;;4.38;2.20;;;;;;;6.46;58.06;99243.03;4943414;28;20040;-70
2021/04/29 09:46:21;;;;;;;3.50;2.00;;;;;;;6.50;57.99;99244.19;4934081;28;20039;-70
2021/04/29 09:48:49;;;;;;;7.43;2.10;;;;;;;6.82;57.53;99237.78;4946303;28;20038;-71
2021/04/29 09:51:18;;;;;;;10.88;2.53;;;;;;;7.02;54.58;99243.63;4930512;28;20419;-70
2021/04/29 09:53:49;;;;;;;8.90;1.90;;;;;;;6.94;54.56;99243.13;4937089;28;20509;-71
2021/04/29 09:56:16;;;;;;;10.13;2.03;;;;;;;6.62;58.85;99244.25;4933315;28;20038;-71
2021/04/29 09:58:48;;;;;;;7.18;2.17;;;;;;;6.46;62.13;99244.91;4938592;28;20032;-71
2021/04/29 10:01:14;;;;;;;6.82;2.45;;;;;;;5.85;62.65;99248.31;4936948;28;20047;-71
2021/04/29 10:03:42;;;;;;;6.38;2.42;;;;;;;5.60;65.13;99259.03;4938198;28;20086;-71
2021/04/29 10:06:14;;;;;;;3.70;2.35;;;;;;;5.29;66.55;99261.59;4937707;28;20039;-71
2021/04/29 10:08:39;;;;;;;9.48;2.50;;;;;;;5.22;68.19;99247.47;4945646;28;20040;-70
2021/04/29 10:11:06;;;;;;;7.00;2.53;;;;;;;5.28;67.11;99251.94;4945991;28;20046;-70
2021/04/29 10:13:35;;;;;;;6.45;2.72;;;;;;;5.59;70.17;99247.56;4936896;28;20028;-70
2021/04/29 10:16:01;;;;;;;5.38;2.20;;;;;;;5.72;64.68;99250.09;4938532;28;20074;-71
2021/04/29 10:18:27;;;;;;;3.33;2.15;;;;;;;5.91;64.46;99257.25;4937716;28;20571;-70
2021/04/29 10:20:56;;;;;;;4.85;2.25;;;;;;;6.05;64.58;99252.63;4941287;28;20040;-70
2021/04/29 10:23:22;;;;;;;9.88;2.35;;;;;;;6.25;62.15;99252.38;4942911;28;20090;-72
2021/04/29 10:25:50;;;;;;;3.55;2.00;;;;;;;6.38;58.71;99246.00;4934061;28;20036;-70
2021/04/29 10:28:41;;;;;;;9.02;2.35;;;;;;;6.46;59.60;99239.53;4913038;29;20032;-70
2021/04/29 10:31:21;;;;;;;8.40;2.20;;;;;;;6.56;56.99;99237.13;4934845;28;20036;-70
2021/04/29 10:33:53;;;;;;;9.65;2.67;;;;;;;6.62;58.00;99240.72;4954305;28;20107;-70
2021/04/29 10:36:20;;;;;;;10.27;2.25;;;;;;;7.01;54.21;99243.84;4940966;28;20032;-70
2021/04/29 10:38:46;;;;;;;5.15;1.77;;;;;;;7.38;51.27;99226.72;4937288;28;20118;-69
2021/04/29 10:41:17;;;;;;;3.80;1.60;;;;;;;7.68;48.82;99231.94;4939618;28;20127;-70
2021/04/29 10:43:43;;;;;;;4.38;1.60;;;;;;;7.87;49.48;99229.09;4942835;28;20051;-69
2021/04/29 10:46:09;;;;;;;4.40;1.60;;;;;;;8.11;49.63;99227.19;4938327;28;20050;-70
2021/04/29 10:48:50;;;;;;;7.85;1.85;;;;;;;7.95;47.76;99234.09;4948697;28;20032;-70
2021/04/29 10:51:16;;;;;;;4.22;2.00;;;;;;;7.18;50.87;99238.63;4944475;28;20046;-70
2021/04/29 10:53:41;;;;;;;4.70;1.80;;;;;;;7.03;52.48;99234.53;4943145;28;20027;-70
2021/04/29 10:56:12;;;;;;;4.15;1.80;;;;;;;6.67;57.14;99255.06;4950240;28;20035;-70
2021/04/29 10:58:37;;;;;;;2.67;1.63;;;;;;;6.43;57.88;99255.00;4952146;28;20039;-70
2021/04/29 11:01:12;;;;;;;3.47;1.80;;;;;;;6.39;58.62;99251.16;4955025;28;20043;-70
2021/04/29 11:03:50;;;;;;;9.40;1.88;;;;;;;6.48;58.09;99250.84;4952949;28;20477;-70
2021/04/29 11:06:25;;;;;;;3.75;1.95;;;;;;;6.67;59.38;99259.59;4937966;29;20043;-69
2021/04/29 11:08:52;;;;;;;6.68;2.28;;;;;;;7.03;58.21;99249.78;4951675;28;20027;-70
2021/04/29 11:11:23;;;;;;;8.65;2.10;;;;;;;7.03;56.81;99252.44;4955306;28;20039;-69
2021/04/29 11:14:09;;;;;;;9.13;2.15;;;;;;;7.07;57.36;99250.97;4945515;28;20031;-69
2021/04/29 11:16:57;;;;;;;4.25;1.83;;;;;;;6.94;57.13;99245.81;4952929;28;20035;-69
2021/04/29 11:19:41;;;;;;;4.50;1.70;;;;;;;7.14;55.60;99242.81;4952936;28;20050;-69
2021/04/29 11:22:12;;;;;;;4.23;1.83;;;;;;;7.30;57.38;99260.06;4944485;28;20087;-69
2021/04/29 11:24:49;;;;;;;3.22;1.50;;;;;;;7.25;55.44;99243.88;4952422;28;20360;-71
2021/04/29 11:27:25;;;;;;;4.60;2.03;;;;;;;7.28;54.85;99246.88;4947993;28;20019;-69
2021/04/29 11:30:01;;;;;;;8.18;1.90;;;;;;;7.46;54.20;99245.97;4938644;28;20466;-69
2021/04/29 11:32:27;;;;;;;4.82;1.70;;;;;;;7.75;52.46;99242.53;4953894;28;20183;-69
2021/04/29 11:34:54;;;;;;;3.58;1.70;;;;;;;7.72;52.36;99245.69;4933163;29;20036;-70
2021/04/29 11:37:21;;;;;;;2.53;1.35;;;;;;;7.54;52.88;99254.69;4939265;28;20075;-69
2021/04/29 11:39:58;;;;;;;7.93;1.58;;;;;;;7.33;51.51;99254.25;4942800;28;20075;-69